Time;durP1;ratioP1;P1;durP2;ratioP2;P2;SDS_P1;SDS_P2;PMS_P1;PMS_P2;Temp;Humidity;BMP_temperature;BMP_pressure;BME280_temperature;BME280_humidity;BME280_pressure;Samples;Min_cycle;Max_cycle;Signal;HPM_P1;HPM_P2
2021/04/04 00:02:11;;;;;;;26.50;8.30;;;;;;;3.59;69.48;100256.75;5013883;28;20484;-62
2021/04/04 00:04:36;;;;;;;26.17;8.55;;;;;;;3.70;67.84;100252.09;5014242;28;20021;-62
2021/04/04 00:07:02;;;;;;;18.80;7.22;;;;;;;3.67;67.71;100251.44;5012798;28;20045;-62
2021/04/04 00:09:27;;;;;;;22.58;8.18;;;;;;;3.60;68.88;100252.31;5013064;28;20050;-62
2021/04/04 00:11:53;;;;;;;19.23;7.50;;;;;;;3.64;68.17;100258.91;5013880;28;20046;-62
2021/04/04 00:14:18;;;;;;;25.63;7.45;;;;;;;3.54;68.85;100253.81;5014334;28;20038;-62
2021/04/04 00:16:44;;;;;;;25.77;7.57;;;;;;;3.54;69.05;100243.19;5013738;28;20413;-62
2021/04/04 00:19:09;;;;;;;26.10;7.85;;;;;;;3.41;72.76;100251.69;5012844;28;20039;-62
2021/04/04 00:21:35;;;;;;;23.40;8.75;;;;;;;3.43;69.59;100248.88;4992800;28;20470;-62
2021/04/04 00:24:02;;;;;;;33.33;7.60;;;;;;;3.44;69.63;100253.19;5009771;28;20389;-62
2021/04/04 00:26:28;;;;;;;25.98;8.00;;;;;;;3.34;70.32;100248.06;4993783;28;20089;-62
2021/04/04 00:28:53;;;;;;;20.25;7.60;;;;;;;3.42;69.84;100249.88;4994323;28;20030;-62
2021/04/04 00:31:18;;;;;;;25.27;7.78;;;;;;;3.32;70.16;100255.38;4993997;28;20465;-62
2021/04/04 00:33:44;;;;;;;23.67;7.78;;;;;;;3.48;70.18;100253.69;4994241;28;20412;-62
2021/04/04 00:36:09;;;;;;;27.77;7.43;;;;;;;3.45;71.97;100255.66;4993793;28;20547;-62
2021/04/04 00:38:35;;;;;;;19.60;7.55;;;;;;;3.41;70.86;100253.53;4994165;28;20022;-62
2021/04/04 00:41:00;;;;;;;23.27;7.80;;;;;;;3.43;70.32;100251.53;4993752;28;20043;-62
2021/04/04 00:43:26;;;;;;;22.23;7.28;;;;;;;3.35;73.77;100254.22;4994062;28;20081;-62
2021/04/04 00:45:51;;;;;;;25.25;8.07;;;;;;;3.36;70.92;100253.22;4993619;28;20042;-62
2021/04/04 00:48:16;;;;;;;25.73;7.70;;;;;;;3.20;70.99;100257.56;4993874;28;20030;-62
2021/04/04 00:50:42;;;;;;;30.75;8.32;;;;;;;3.02;71.11;100248.97;4993611;28;20161;-62
2021/04/04 00:53:07;;;;;;;28.30;8.25;;;;;;;3.08;71.77;100248.31;4993908;28;20037;-62
2021/04/04 00:55:33;;;;;;;26.42;8.02;;;;;;;3.13;71.39;100250.47;4993389;28;20073;-62
2021/04/04 00:57:59;;;;;;;19.80;7.47;;;;;;;3.16;71.05;100247.47;5008719;28;20030;-62
2021/04/04 01:00:26;;;;;;;24.70;6.90;;;;;;;3.14;71.18;100252.94;4993217;28;20034;-62
2021/04/04 01:02:53;;;;;;;22.20;7.03;;;;;;;3.06;73.91;100247.66;4993450;28;20088;-62
2021/04/04 01:05:26;;;;;;;24.50;8.05;;;;;;;2.99;71.94;100252.78;4993493;28;20026;-62
2021/04/04 01:07:51;;;;;;;24.05;7.50;;;;;;;3.01;71.99;100242.03;5008555;28;20026;-62
2021/04/04 01:10:17;;;;;;;25.77;7.43;;;;;;;3.03;72.09;100250.66;4992944;28;20354;-62
2021/04/04 01:13:16;;;;;;;28.50;7.97;;;;;;;2.86;72.37;100246.38;5008622;28;20026;-62
2021/04/04 01:16:03;;;;;;;18.33;7.35;;;;;;;2.83;72.64;100254.66;4991775;28;20121;-62
2021/04/04 01:18:39;;;;;;;24.60;7.85;;;;;;;2.73;73.31;100245.06;5008513;28;20034;-61
2021/04/04 01:21:16;;;;;;;22.52;8.02;;;;;;;2.80;73.09;100245.22;5004961;28;20125;-62
2021/04/04 01:23:53;;;;;;;24.10;7.97;;;;;;;2.72;73.10;100243.41;5012728;28;20025;-62
2021/04/04 01:26:41;;;;;;;31.23;8.55;;;;;;;2.76;73.20;100250.00;5010672;28;20448;-62
2021/04/04 01:29:06;;;;;;;18.20;6.53;;;;;;;2.75;75.43;100250.19;4993064;28;20038;-62
2021/04/04 01:31:33;;;;;;;23.25;8.00;;;;;;;2.65;73.99;100250.34;4991295;28;20039;-62
2021/04/04 01:33:59;;;;;;;19.40;7.45;;;;;;;2.83;73.40;100254.66;4991635;28;20033;-62
2021/04/04 01:36:24;;;;;;;25.05;9.05;;;;;;;2.62;73.83;100248.06;4975120;28;20042;-62
2021/04/04 01:38:50;;;;;;;24.83;8.27;;;;;;;2.50;74.28;100250.19;4990843;28;20026;-61
2021/04/04 01:41:25;;;;;;;23.10;7.00;;;;;;;2.59;75.25;100253.66;4991357;28;20049;-62
2021/04/04 01:43:51;;;;;;;23.63;8.63;;;;;;;2.45;75.18;100252.50;4991970;28;20114;-62
2021/04/04 01:46:17;;;;;;;25.25;7.32;;;;;;;2.58;74.49;100244.06;4992626;28;20050;-62
2021/04/04 01:48:42;;;;;;;36.67;8.73;;;;;;;2.62;74.45;100247.19;4959268;28;20385;-61
2021/04/04 01:51:09;;;;;;;18.42;7.65;;;;;;;2.67;74.56;100248.38;4975247;28;20041;-62
2021/04/04 01:53:35;;;;;;;29.13;7.88;;;;;;;2.50;74.59;100239.59;4991847;28;20037;-62
2021/04/04 01:56:00;;;;;;;24.13;7.43;;;;;;;2.40;75.83;100243.38;4992523;28;20034;-62
2021/04/04 01:58:26;;;;;;;23.90;8.05;;;;;;;2.34;74.36;100251.00;4991752;28;20069;-62
2021/04/04 02:00:51;;;;;;;31.88;8.55;;;;;;;2.40;75.12;100248.69;5007583;28;20046;-62
2021/04/04 02:03:17;;;;;;;19.83;7.82;;;;;;;2.32;75.26;100249.50;5007881;28;20037;-62
2021/04/04 02:05:43;;;;;;;25.92;8.00;;;;;;;2.26;75.27;100248.34;4991314;28;20039;-61
2021/04/04 02:08:08;;;;;;;23.08;7.80;;;;;;;2.23;75.78;100248.69;5007750;28;20358;-61
2021/04/04 02:10:35;;;;;;;24.77;8.20;;;;;;;2.21;75.53;100248.00;4958586;28;20046;-61
2021/04/04 02:13:00;;;;;;;29.13;7.93;;;;;;;2.19;76.04;100251.81;4992817;28;20366;-62
2021/04/04 02:15:28;;;;;;;34.53;8.00;;;;;;;2.15;75.20;100256.59;5007276;28;20113;-62
2021/04/04 02:17:53;;;;;;;22.08;7.70;;;;;;;2.17;75.66;100251.97;5007866;28;20041;-62
2021/04/04 02:20:20;;;;;;;28.13;8.52;;;;;;;2.32;75.64;100255.66;5010903;28;20038;-62
2021/04/04 02:22:46;;;;;;;28.52;7.50;;;;;;;2.22;78.33;100254.97;5011225;28;20492;-62
2021/04/04 02:25:12;;;;;;;32.85;8.55;;;;;;;2.11;76.07;100255.25;5010726;28;20057;-62
2021/04/04 02:27:43;;;;;;;25.70;8.13;;;;;;;2.09;76.07;100254.59;5011091;28;20385;-62
2021/04/04 02:30:09;;;;;;;24.10;8.23;;;;;;;2.21;75.51;100257.78;5010480;28;20562;-62
2021/04/04 02:32:38;;;;;;;30.65;8.55;;;;;;;2.15;76.18;100248.66;5012182;28;20038;-62
2021/04/04 02:35:04;;;;;;;26.67;8.80;;;;;;;2.04;75.90;100256.91;4994406;28;20028;-62
2021/04/04 02:37:29;;;;;;;31.15;8.38;;;;;;;1.98;76.35;100252.28;5010819;28;20515;-62
2021/04/04 02:39:59;;;;;;;25.33;7.78;;;;;;;1.96;77.00;100251.59;5012179;28;20041;-61
2021/04/04 02:42:24;;;;;;;25.77;7.68;;;;;;;2.01;77.46;100254.59;5010615;28;20412;-61
2021/04/04 02:44:52;;;;;;;26.05;7.85;;;;;;;1.94;76.40;100249.09;5010879;28;20361;-62
2021/04/04 02:47:20;;;;;;;28.67;8.95;;;;;;;2.00;76.30;100242.34;5011674;28;20041;-61
2021/04/04 02:49:47;;;;;;;24.38;7.63;;;;;;;2.16;76.11;100237.09;4996119;28;20116;-62
2021/04/04 02:52:13;;;;;;;23.98;7.50;;;;;;;2.02;76.35;100240.38;5014059;28;20100;-62
2021/04/04 02:54:38;;;;;;;24.63;8.20;;;;;;;1.98;76.98;100244.34;4998070;28;20038;-62
2021/04/04 02:57:04;;;;;;;29.60;8.43;;;;;;;1.86;77.22;100241.97;5013918;28;20042;-62
2021/04/04 02:59:38;;;;;;;32.05;8.18;;;;;;;1.86;77.22;100241.16;4997837;28;20045;-62
2021/04/04 03:02:05;;;;;;;26.83;7.97;;;;;;;1.87;77.16;100229.59;5014034;28;20037;-61
2021/04/04 03:04:35;;;;;;;27.98;8.65;;;;;;;1.77;76.95;100235.00;5015506;28;20038;-62
2021/04/04 03:07:00;;;;;;;29.88;8.18;;;;;;;1.65;77.89;100238.97;5013726;28;20038;-61
2021/04/04 03:09:26;;;;;;;24.13;8.40;;;;;;;1.70;78.09;100236.66;5013912;28;20069;-62
2021/04/04 03:11:51;;;;;;;35.50;8.48;;;;;;;1.61;78.01;100246.38;5014721;28;20516;-61
2021/04/04 03:14:17;;;;;;;29.85;10.18;;;;;;;1.67;78.60;100242.25;4997715;28;20029;-62
2021/04/04 03:16:42;;;;;;;34.28;8.65;;;;;;;1.69;77.90;100241.09;4997271;28;20038;-62
2021/04/04 03:19:08;;;;;;;23.90;8.27;;;;;;;1.70;77.79;100244.59;5013928;28;20488;-61
2021/04/04 03:21:33;;;;;;;28.35;8.50;;;;;;;1.60;77.84;100249.16;4993423;28;20494;-61
2021/04/04 03:23:58;;;;;;;35.60;8.02;;;;;;;1.66;78.26;100259.09;4994150;28;20037;-62
2021/04/04 03:26:24;;;;;;;28.52;8.10;;;;;;;1.62;78.03;100250.69;5010061;28;20375;-61
2021/04/04 03:28:49;;;;;;;31.90;8.93;;;;;;;1.62;78.71;100253.31;4994363;28;20161;-61
2021/04/04 03:31:15;;;;;;;27.27;8.15;;;;;;;1.59;78.12;100244.88;5010016;28;20038;-61
2021/04/04 03:33:41;;;;;;;32.58;9.02;;;;;;;1.80;82.27;100242.63;4995423;28;20394;-61
2021/04/04 03:36:07;;;;;;;34.45;8.95;;;;;;;1.85;80.06;100240.34;5009880;28;20080;-61
2021/04/04 03:38:32;;;;;;;31.67;8.45;;;;;;;1.85;81.03;100245.63;4995101;28;20109;-61
2021/04/04 03:40:58;;;;;;;30.38;8.77;;;;;;;1.75;77.94;100239.66;4993449;28;20039;-61
2021/04/04 03:43:25;;;;;;;37.55;9.85;;;;;;;1.66;77.91;100245.88;5010175;28;20053;-61
2021/04/04 03:45:56;;;;;;;29.17;7.82;;;;;;;1.55;78.09;100240.88;5009646;28;20036;-61
2021/04/04 03:48:21;;;;;;;27.00;8.63;;;;;;;1.48;78.46;100249.44;5009625;28;20097;-61
2021/04/04 03:50:47;;;;;;;39.58;8.63;;;;;;;1.56;78.48;100247.84;5009489;28;20469;-61
2021/04/04 03:53:16;;;;;;;32.50;9.85;;;;;;;1.57;78.77;100242.38;5009994;28;20538;-61
2021/04/04 03:55:42;;;;;;;30.45;8.93;;;;;;;1.67;79.15;100244.88;5009096;28;20088;-61
2021/04/04 03:58:07;;;;;;;24.80;8.50;;;;;;;1.55;77.96;100244.38;4993700;28;20409;-61
2021/04/04 04:00:33;;;;;;;29.77;8.32;;;;;;;1.58;77.95;100243.22;4993029;28;20042;-61
2021/04/04 04:02:58;;;;;;;26.70;9.00;;;;;;;1.29;80.45;100244.41;5009145;28;20477;-61
2021/04/04 04:05:24;;;;;;;25.23;8.60;;;;;;;1.35;79.12;100241.16;5009184;28;20038;-61
2021/04/04 04:07:50;;;;;;;38.33;9.30;;;;;;;1.29;78.61;100249.69;4994615;28;20034;-61
2021/04/04 04:10:16;;;;;;;23.42;9.13;;;;;;;1.21;81.44;100252.28;4992530;28;20054;-61
2021/04/04 04:12:41;;;;;;;31.95;9.45;;;;;;;1.22;79.39;100248.66;4994724;28;20532;-61
2021/04/04 04:15:07;;;;;;;22.10;9.07;;;;;;;1.18;79.42;100242.88;4992752;28;20038;-61
2021/04/04 04:17:33;;;;;;;36.28;9.82;;;;;;;1.42;82.32;100243.97;5009616;28;20105;-61
2021/04/04 04:19:58;;;;;;;34.65;9.45;;;;;;;1.54;79.94;100241.88;4993868;28;20212;-61
2021/04/04 04:22:24;;;;;;;31.27;9.63;;;;;;;1.60;78.72;100246.50;5013529;28;20034;-64
2021/04/04 04:24:50;;;;;;;22.85;9.90;;;;;;;1.36;80.19;100240.16;4980230;28;20032;-62
2021/04/04 04:27:18;;;;;;;30.83;10.73;;;;;;;1.44;79.48;100239.34;5013756;28;20111;-61
2021/04/04 04:29:48;;;;;;;29.42;9.63;;;;;;;1.35;79.02;100238.50;4996439;28;20477;-61
2021/04/04 04:32:15;;;;;;;30.08;10.45;;;;;;;1.47;79.42;100237.25;5013317;28;20053;-61
2021/04/04 04:34:43;;;;;;;27.08;8.82;;;;;;;1.31;79.15;100225.75;5013963;28;20036;-61
2021/04/04 04:37:10;;;;;;;22.15;9.68;;;;;;;1.24;79.63;100230.84;5011823;28;20034;-61
2021/04/04 04:39:36;;;;;;;34.10;10.10;;;;;;;1.36;80.76;100226.94;5012303;28;20405;-61
2021/04/04 04:42:02;;;;;;;29.55;9.55;;;;;;;1.42;80.44;100228.97;4995443;28;20044;-61
2021/04/04 04:44:27;;;;;;;27.48;9.73;;;;;;;1.57;79.49;100231.81;5012512;28;20026;-61
2021/04/04 04:46:56;;;;;;;40.40;10.20;;;;;;;1.50;79.99;100228.16;4995668;28;20034;-61
2021/04/04 04:49:21;;;;;;;31.55;9.90;;;;;;;1.65;80.20;100218.63;4996142;28;20034;-61
2021/04/04 04:51:47;;;;;;;38.63;10.02;;;;;;;1.53;79.51;100224.38;5012930;28;20508;-61
2021/04/04 04:54:13;;;;;;;32.85;9.85;;;;;;;1.45;80.49;100218.06;5013335;28;20461;-61
2021/04/04 04:56:38;;;;;;;27.00;9.75;;;;;;;1.57;79.97;100220.41;5012775;28;20045;-61
2021/04/04 04:59:04;;;;;;;40.17;9.88;;;;;;;1.73;78.26;100223.13;5012258;28;20025;-61
2021/04/04 05:01:30;;;;;;;29.35;10.27;;;;;;;1.66;78.66;100215.00;5011596;28;20048;-61
2021/04/04 05:03:56;;;;;;;27.05;10.30;;;;;;;1.65;79.14;100218.63;4995561;28;20357;-61
2021/04/04 05:06:24;;;;;;;27.55;9.05;;;;;;;1.44;77.99;100221.69;5012787;28;20042;-61
2021/04/04 05:08:49;;;;;;;31.02;10.35;;;;;;;1.32;79.52;100222.94;5013215;28;20041;-61
2021/04/04 05:11:18;;;;;;;26.05;9.45;;;;;;;1.31;78.85;100218.66;5012283;28;20046;-61
2021/04/04 05:13:43;;;;;;;25.38;9.32;;;;;;;1.46;79.18;100214.44;5011881;28;20025;-61
2021/04/04 05:16:09;;;;;;;32.22;10.10;;;;;;;1.33;80.43;100216.69;5011161;28;20033;-60
2021/04/04 05:18:35;;;;;;;31.65;9.60;;;;;;;1.61;80.67;100219.13;5012881;28;20407;-61
2021/04/04 05:21:00;;;;;;;29.77;9.50;;;;;;;1.56;79.72;100219.59;5010802;28;20542;-61
2021/04/04 05:23:26;;;;;;;29.67;8.77;;;;;;;1.80;75.73;100221.50;5012615;28;20037;-61
2021/04/04 05:25:52;;;;;;;29.27;9.65;;;;;;;1.89;76.62;100223.16;5011307;28;20048;-61
2021/04/04 05:28:18;;;;;;;26.70;9.13;;;;;;;2.28;78.07;100224.38;4995162;28;20468;-61
2021/04/04 05:30:43;;;;;;;26.33;9.38;;;;;;;2.19;74.78;100220.06;5010828;28;20248;-61
2021/04/04 05:33:09;;;;;;;29.50;9.82;;;;;;;2.21;74.45;100223.38;5012873;28;20384;-61
2021/04/04 05:35:39;;;;;;;33.85;8.57;;;;;;;2.64;73.76;100229.34;5010666;28;20038;-61
2021/04/04 05:38:05;;;;;;;31.02;9.48;;;;;;;3.10;71.29;100233.09;5012747;28;20030;-61
2021/04/04 05:40:30;;;;;;;28.55;9.15;;;;;;;3.75;68.57;100224.06;5012402;28;20038;-61
2021/04/04 05:42:57;;;;;;;26.30;8.68;;;;;;;4.01;66.95;100237.00;5012462;28;20427;-62
2021/04/04 05:45:36;;;;;;;21.02;8.32;;;;;;;4.71;65.58;100235.16;5011177;28;20034;-61
2021/04/04 05:48:09;;;;;;;31.95;9.05;;;;;;;5.30;62.21;100229.94;5012555;28;20034;-61
2021/04/04 05:51:18;;;;;;;28.40;8.70;;;;;;;5.87;59.61;100238.22;5010702;28;20041;-61
2021/04/04 05:53:46;;;;;;;31.55;8.50;;;;;;;6.19;58.61;100242.25;4992112;28;20445;-61
2021/04/04 05:56:22;;;;;;;33.80;8.07;;;;;;;7.06;55.39;100241.19;5012084;28;20050;-61
2021/04/04 05:58:51;;;;;;;30.52;7.65;;;;;;;7.83;52.65;100245.50;5011571;28;20022;-61
2021/04/04 06:01:29;;;;;;;23.90;7.68;;;;;;;7.35;54.07;100245.47;5010826;28;20034;-61
2021/04/04 06:04:23;;;;;;;25.65;7.75;;;;;;;8.06;51.62;100239.00;5012545;28;20088;-61
2021/04/04 06:07:16;;;;;;;18.95;7.63;;;;;;;7.93;52.37;100247.78;5012123;28;20045;-61
2021/04/04 06:10:04;;;;;;;31.73;8.73;;;;;;;8.50;50.26;100251.03;5012026;28;20523;-61
2021/04/04 06:12:55;;;;;;;19.40;8.38;;;;;;;8.97;48.79;100241.19;5011163;28;20057;-61
2021/04/04 06:15:38;;;;;;;24.30;7.53;;;;;;;8.45;49.53;100254.31;5011668;28;25245;-62
2021/04/04 06:18:04;;;;;;;19.98;7.25;;;;;;;8.96;48.69;100247.53;5011153;28;20076;-62
2021/04/04 06:20:51;;;;;;;29.15;10.57;;;;;;;9.59;46.89;100247.84;5011692;28;20046;-61
2021/04/04 06:23:21;;;;;;;25.42;8.70;;;;;;;9.48;47.17;100251.16;5010957;28;20034;-62
2021/04/04 06:25:49;;;;;;;20.67;7.97;;;;;;;10.34;45.24;100247.31;4996839;28;20069;-62
2021/04/04 06:28:39;;;;;;;22.98;8.00;;;;;;;10.01;46.05;100242.94;5016189;28;20129;-62
2021/04/04 06:31:26;;;;;;;21.02;7.78;;;;;;;10.67;44.00;100248.94;5014518;28;20049;-61
2021/04/04 06:33:58;;;;;;;22.92;7.20;;;;;;;11.56;42.38;100241.50;5015965;28;20033;-62
2021/04/04 06:37:01;;;;;;;23.13;7.15;;;;;;;10.90;42.86;100242.97;4998566;28;20036;-62
2021/04/04 06:40:07;;;;;;;23.83;7.13;;;;;;;10.47;44.02;100249.91;5015969;28;20033;-62
2021/04/04 06:43:02;;;;;;;23.90;7.43;;;;;;;11.29;42.27;100241.78;5015797;28;20046;-62
2021/04/04 06:45:58;;;;;;;22.00;7.60;;;;;;;10.29;44.13;100242.59;5012642;28;20057;-62
2021/04/04 06:48:48;;;;;;;24.20;7.57;;;;;;;10.51;44.35;100256.47;5015853;28;20068;-62
2021/04/04 06:51:17;;;;;;;28.27;7.68;;;;;;;11.34;42.05;100258.03;5014334;28;20038;-62
2021/04/04 06:54:21;;;;;;;27.02;8.77;;;;;;;10.82;43.63;100260.16;5015891;28;20427;-62
2021/04/04 06:57:19;;;;;;;25.33;7.93;;;;;;;11.48;42.32;100255.19;5000126;28;20034;-62
2021/04/04 07:00:12;;;;;;;19.80;7.50;;;;;;;11.84;41.37;100260.56;4997964;28;20535;-62
2021/04/04 07:02:46;;;;;;;21.30;7.35;;;;;;;12.25;40.53;100259.03;5014351;28;20515;-62
2021/04/04 07:05:13;;;;;;;30.48;8.00;;;;;;;11.72;41.26;100256.19;5013893;28;20021;-62
2021/04/04 07:08:15;;;;;;;26.83;9.00;;;;;;;11.74;41.37;100260.28;4998109;28;20026;-62
2021/04/04 07:10:49;;;;;;;22.33;8.82;;;;;;;11.29;43.24;100257.88;5013825;28;20049;-62
2021/04/04 07:13:42;;;;;;;22.92;8.52;;;;;;;12.41;40.32;100259.44;5014002;28;20467;-61
2021/04/04 07:16:34;;;;;;;23.02;8.43;;;;;;;11.86;41.54;100246.94;5013322;28;20113;-61
2021/04/04 07:19:18;;;;;;;23.08;8.50;;;;;;;11.72;41.70;100248.94;5014228;28;20064;-61
2021/04/04 07:22:36;;;;;;;25.65;8.85;;;;;;;10.24;45.41;100244.25;5013790;28;20039;-61
2021/04/04 07:25:22;;;;;;;32.20;10.75;;;;;;;9.14;48.69;100239.72;4938307;28;20086;-62
2021/04/04 07:28:28;;;;;;;28.10;8.13;;;;;;;9.41;48.90;100239.66;4939608;29;20332;-61
2021/04/04 07:30:58;;;;;;;30.27;10.35;;;;;;;10.28;46.08;100229.41;5028076;28;20451;-61
2021/04/04 07:34:01;;;;;;;28.52;8.25;;;;;;;10.47;45.37;100238.38;5015274;28;20057;-61
2021/04/04 07:37:04;;;;;;;28.20;7.93;;;;;;;9.74;46.85;100236.06;5013544;28;20061;-61
2021/04/04 07:39:33;;;;;;;28.88;8.45;;;;;;;10.11;44.60;100224.53;5009577;28;20038;-61
2021/04/04 07:42:18;;;;;;;27.88;8.93;;;;;;;9.16;47.67;100226.97;5014709;28;20585;-61
2021/04/04 07:44:54;;;;;;;29.73;9.48;;;;;;;9.13;47.90;100229.22;5013858;28;20384;-62
2021/04/04 07:47:32;;;;;;;40.65;12.98;;;;;;;10.71;43.94;100234.06;5013457;28;20058;-62
2021/04/04 07:50:02;;;;;;;25.02;9.77;;;;;;;10.20;44.84;100225.09;5013685;28;20056;-61
2021/04/04 07:52:35;;;;;;;29.85;10.10;;;;;;;9.33;47.31;100226.50;5013458;28;20539;-61
2021/04/04 07:55:16;;;;;;;29.58;10.75;;;;;;;10.78;43.46;100226.75;5014247;28;20030;-62
2021/04/04 07:58:17;;;;;;;25.30;11.00;;;;;;;9.10;46.23;100222.44;5013675;28;20098;-61
2021/04/04 08:00:46;;;;;;;26.65;10.85;;;;;;;8.49;50.25;100218.16;5012907;28;20125;-61
2021/04/04 08:03:16;;;;;;;31.42;10.85;;;;;;;7.84;50.87;100227.63;4981180;28;20117;-61
2021/04/04 08:05:43;;;;;;;33.22;11.73;;;;;;;6.67;54.48;100219.38;4996963;28;20038;-62
2021/04/04 08:08:11;;;;;;;35.00;13.85;;;;;;;6.86;53.72;100217.06;5014849;28;20022;-61
2021/04/04 08:10:40;;;;;;;40.42;14.50;;;;;;;6.52;54.43;100213.31;4996306;28;20523;-61
2021/04/04 08:13:28;;;;;;;35.97;19.00;;;;;;;6.60;53.89;100218.50;5014429;28;20089;-61
2021/04/04 08:16:29;;;;;;;36.30;14.55;;;;;;;6.87;53.46;100221.38;5012932;28;20381;-61
2021/04/04 08:18:55;;;;;;;48.80;16.98;;;;;;;6.08;54.87;100216.97;5014472;28;20053;-61
2021/04/04 08:21:23;;;;;;;47.63;15.27;;;;;;;6.23;55.61;100216.94;5013944;28;20100;-61
2021/04/04 08:24:03;;;;;;;31.98;14.45;;;;;;;6.13;54.52;100219.91;4996624;28;20026;-61
2021/04/04 08:26:48;;;;;;;38.10;16.97;;;;;;;6.13;54.85;100219.91;5012714;28;20058;-61
2021/04/04 08:29:16;;;;;;;37.35;15.38;;;;;;;6.39;54.04;100221.16;5014109;28;20118;-61
2021/04/04 08:31:49;;;;;;;46.50;16.13;;;;;;;6.07;54.54;100220.66;5012348;28;20038;-61
2021/04/04 08:34:22;;;;;;;39.25;15.30;;;;;;;6.01;54.77;100216.09;5012908;28;20030;-61
2021/04/04 08:36:52;;;;;;;41.63;16.30;;;;;;;5.87;57.39;100216.94;5012433;28;20030;-64
2021/04/04 08:39:19;;;;;;;;;;;;;;;6.13;55.05;100219.91;4980956;28;20030;-61
2021/04/04 08:41:44;;;;;;;48.38;16.90;;;;;;;6.47;55.34;100221.06;5012352;28;20451;-61
2021/04/04 08:44:27;;;;;;;42.40;16.55;;;;;;;6.16;55.25;100216.84;5012792;28;20026;-61
2021/04/04 08:47:13;;;;;;;40.08;17.67;;;;;;;6.19;55.68;100213.84;4996329;28;20033;-61
2021/04/04 08:49:39;;;;;;;35.47;15.27;;;;;;;6.20;54.06;100212.00;5011912;28;20469;-61
2021/04/04 08:52:12;;;;;;;37.20;14.15;;;;;;;5.91;54.06;100220.84;4995962;28;20040;-62
2021/04/04 08:54:38;;;;;;;40.90;18.20;;;;;;;6.13;56.03;100227.88;5014214;28;20018;-61
2021/04/04 08:57:03;;;;;;;38.83;17.15;;;;;;;6.15;53.55;100223.19;4995642;28;20041;-61
2021/04/04 08:59:31;;;;;;;37.88;16.02;;;;;;;6.70;51.69;100221.66;5013585;28;20037;-61
2021/04/04 09:02:06;;;;;;;37.95;16.50;;;;;;;6.65;52.35;100229.41;4995799;28;20034;-61
2021/04/04 09:04:33;;;;;;;35.83;14.68;;;;;;;6.97;50.84;100231.69;5013552;28;20420;-61
2021/04/04 09:07:03;;;;;;;32.33;15.85;;;;;;;6.41;52.78;100230.59;5013165;28;20118;-61
2021/04/04 09:09:33;;;;;;;30.63;16.00;;;;;;;6.41;53.01;100227.13;5013157;28;20054;-61
2021/04/04 09:11:58;;;;;;;35.00;14.68;;;;;;;6.76;52.08;100221.91;5013069;28;20046;-61
2021/04/04 09:14:24;;;;;;;26.65;13.48;;;;;;;6.73;51.53;100220.44;5013406;28;20075;-61
2021/04/04 09:16:56;;;;;;;28.00;13.50;;;;;;;6.31;52.01;100224.78;5011661;28;20042;-61
2021/04/04 09:19:34;;;;;;;31.77;14.23;;;;;;;6.51;51.58;100224.16;5013340;28;20085;-61
2021/04/04 09:22:20;;;;;;;36.33;14.30;;;;;;;6.23;53.06;100228.41;5012760;28;20510;-61
2021/04/04 09:24:48;;;;;;;31.80;15.38;;;;;;;6.45;52.56;100217.75;4995841;28;20388;-61
2021/04/04 09:27:16;;;;;;;37.75;14.65;;;;;;;6.45;52.33;100220.41;5012904;28;20561;-62
2021/04/04 09:29:46;;;;;;;29.52;13.65;;;;;;;6.37;52.13;100216.03;5011860;28;20030;-61
2021/04/04 09:32:15;;;;;;;31.10;12.45;;;;;;;6.22;52.14;100223.28;4995581;28;20378;-61
2021/04/04 09:34:42;;;;;;;29.85;13.85;;;;;;;6.25;52.23;100229.03;4992462;28;20112;-62
2021/04/04 09:37:08;;;;;;;27.10;12.88;;;;;;;6.47;52.87;100218.38;4975597;28;20041;-62
2021/04/04 09:39:33;;;;;;;35.47;14.00;;;;;;;6.40;52.58;100214.84;4992329;28;20026;-62
2021/04/04 09:41:59;;;;;;;36.38;16.55;;;;;;;6.24;53.26;100221.22;4991845;28;20104;-62
2021/04/04 09:44:31;;;;;;;30.17;15.00;;;;;;;6.15;52.59;100215.22;4992429;28;20027;-62
2021/04/04 09:46:59;;;;;;;35.28;16.02;;;;;;;6.23;52.34;100217.75;4993038;28;20049;-62
2021/04/04 09:49:45;;;;;;;32.92;14.98;;;;;;;6.58;52.10;100215.19;4993291;28;20037;-62
2021/04/04 09:52:27;;;;;;;34.08;16.02;;;;;;;6.23;53.36;100223.06;4991848;28;20133;-61
2021/04/04 09:55:01;;;;;;;33.55;16.45;;;;;;;6.56;52.50;100219.88;4992207;28;20034;-62
2021/04/04 09:57:26;;;;;;;36.65;17.05;;;;;;;6.80;51.25;100225.84;4992999;28;20137;-62
2021/04/04 09:59:52;;;;;;;33.30;15.48;;;;;;;7.04;49.87;100221.88;4994658;28;20027;-62
2021/04/04 10:02:33;;;;;;;26.95;14.35;;;;;;;6.39;51.25;100224.69;4996792;28;20042;-62
2021/04/04 10:04:59;;;;;;;25.75;13.23;;;;;;;7.16;48.88;100230.16;4995986;28;20069;-62
2021/04/04 10:07:29;;;;;;;28.30;14.23;;;;;;;7.09;51.83;100220.31;4995601;28;20049;-62
2021/04/04 10:09:55;;;;;;;28.50;12.75;;;;;;;6.72;50.21;100210.81;4996964;28;20054;-62
2021/04/04 10:12:20;;;;;;;24.60;11.73;;;;;;;6.56;50.73;100219.88;4995482;28;20065;-62
2021/04/04 10:15:05;;;;;;;31.35;13.25;;;;;;;7.12;49.97;100217.25;4979778;28;20030;-62
2021/04/04 10:17:30;;;;;;;26.15;12.82;;;;;;;6.34;50.93;100215.59;4996968;28;20074;-63
2021/04/04 10:19:58;;;;;;;34.17;13.18;;;;;;;6.70;51.34;100213.66;4997257;28;20389;-62
2021/04/04 10:22:23;;;;;;;23.85;10.57;;;;;;;7.19;49.28;100214.63;5016219;28;20034;-63
2021/04/04 10:24:49;;;;;;;21.70;9.30;;;;;;;7.33;49.00;100210.16;5016626;28;20029;-62
2021/04/04 10:27:22;;;;;;;21.13;10.02;;;;;;;7.23;49.54;100212.38;5014764;28;20030;-62
2021/04/04 10:29:48;;;;;;;25.85;9.85;;;;;;;6.63;51.56;100212.78;5016661;28;20034;-62
2021/04/04 10:32:14;;;;;;;20.60;9.77;;;;;;;7.11;49.45;100202.28;5014635;28;20034;-62
2021/04/04 10:34:44;;;;;;;25.48;9.43;;;;;;;6.85;50.36;100207.41;5015232;28;20030;-62
2021/04/04 10:37:09;;;;;;;22.30;7.95;;;;;;;6.92;50.23;100200.31;5015815;28;20551;-63
2021/04/04 10:39:35;;;;;;;22.10;10.57;;;;;;;6.56;51.64;100187.91;5015015;28;20029;-62
2021/04/04 10:42:13;;;;;;;24.13;10.30;;;;;;;6.52;51.28;100181.34;4998212;28;20030;-62
2021/04/04 10:44:39;;;;;;;31.48;15.13;;;;;;;6.32;51.42;100193.69;5016255;28;20084;-62
2021/04/04 10:47:21;;;;;;;31.42;13.77;;;;;;;6.64;51.13;100184.28;5015638;28;20388;-62
2021/04/04 10:49:48;;;;;;;22.23;11.18;;;;;;;7.04;52.32;100187.22;5016008;28;20026;-62
2021/04/04 10:52:13;;;;;;;31.30;11.60;;;;;;;7.26;48.89;100182.63;5015494;28;20066;-62
2021/04/04 10:54:39;;;;;;;27.23;10.18;;;;;;;7.13;48.74;100184.22;5015889;28;20068;-62
2021/04/04 10:57:05;;;;;;;28.67;12.50;;;;;;;7.01;49.10;100175.13;5015435;28;20038;-61
2021/04/04 10:59:31;;;;;;;25.65;10.90;;;;;;;6.58;48.94;100172.56;5016195;28;20079;-63
2021/04/04 11:01:56;;;;;;;29.55;12.05;;;;;;;6.43;51.08;100166.53;4997662;28;20042;-61
2021/04/04 11:04:22;;;;;;;28.92;12.50;;;;;;;6.38;51.35;100164.44;5014550;28;20033;-61
2021/04/04 11:06:47;;;;;;;26.00;9.48;;;;;;;7.29;49.83;100167.09;5015086;28;20037;-61
2021/04/04 11:09:12;;;;;;;23.55;10.40;;;;;;;7.83;48.97;100168.09;4997837;28;20030;-61
2021/04/04 11:11:38;;;;;;;23.77;11.10;;;;;;;7.88;47.54;100165.63;5013780;28;20041;-61
2021/04/04 11:14:04;;;;;;;29.50;12.07;;;;;;;7.68;47.43;100154.91;4998163;28;20391;-61
2021/04/04 11:16:29;;;;;;;27.05;9.98;;;;;;;8.10;47.16;100162.81;5013642;28;20145;-61
2021/04/04 11:18:56;;;;;;;22.10;9.50;;;;;;;8.53;46.64;100160.59;4997755;28;20026;-61
2021/04/04 11:21:27;;;;;;;18.65;8.07;;;;;;;8.20;45.83;100152.56;5013659;28;20069;-62
2021/04/04 11:23:52;;;;;;;20.05;9.15;;;;;;;7.40;47.59;100163.03;4997950;28;20052;-62
2021/04/04 11:26:24;;;;;;;21.45;10.15;;;;;;;7.80;46.42;100157.00;5013796;28;20492;-62
2021/04/04 11:29:25;;;;;;;25.55;9.70;;;;;;;7.71;47.52;100153.69;5014066;28;20041;-62
2021/04/04 11:31:58;;;;;;;22.38;9.70;;;;;;;7.10;48.18;100141.97;4972170;28;20477;-62
2021/04/04 11:34:30;;;;;;;23.20;7.72;;;;;;;7.80;46.16;100141.00;5014994;28;20018;-61
2021/04/04 11:36:55;;;;;;;22.55;8.38;;;;;;;7.46;46.62;100148.91;5013467;28;20034;-62
2021/04/04 11:39:21;;;;;;;23.10;8.60;;;;;;;7.77;46.38;100142.22;5015130;28;20026;-62
2021/04/04 11:41:51;;;;;;;18.10;8.63;;;;;;;7.84;46.60;100137.72;5014875;28;20099;-63